Elamton, Kentucky
Current Conditions -  °F | °C
As of 5:53 PM on Monday 24 Nov 2014 (Local Time) from KJKL Reporting Station
Clear Clear  
Wind Chill: 56°   Ceiling: Unl
Heat Index: 56°   Visibility: 10mi
Dew Point: 38°   Wind: 5mph
Humidity: 51%   Direction: NA
Pressure: 29.78"   Gusts: NA
Location:  37.937°N, 83.2694°W
Report Text: KJKL 242253Z AUTO VRB04KT 10SM CLR 13/03 A2978 RMK AO2 SLP077 T01330033
Loading
Personal Weather Stations






























Interactive Weather Map New forecast layout! Learn more

10-Day Weather Forecast

Advertisements
Track Severe Weather on mobile